Discovery Coast — WDG2458 — position and weather

sailwx.info

Track history (hours):
 
Tides and Currents Weather Stations Pressure Air Temp Water Temp Dewpoint Dewpoint Depression Visibility Wind Speed Wind Dir Waves Ship Positions

Discovery Coast

Owner: Dann Marine Towing, LC, Chesapeake City, MD. More information available from US FCC via Universal Licensing System.

Last reported at 2018-Aug-17 07:36 UTC. Time now 2018-Aug-17 11:40 UTC.
Position N 41°09' W 072°41'.

Length 31 m; draft 4.3 m.

Type: Tug. MMSI: 367515850.

Date/timePositionNaut miles runAvg speedWind from/ knotsBaromVisibWave heightAir tempDewpointWater temp
2018-Aug-17 07:36N 41°09' W 072°41'1 8.3
2018-Aug-17 07:30N 41°08' W 072°42'5 8.5
2018-Aug-17 06:55N 41°08' W 072°49'52 8.6
2018-Aug-17 00:50N 40°48' W 073°53'2 6.5
2018-Aug-17 00:27N 40°47' W 073°56'2 4.1
2018-Aug-17 00:00N 40°45' W 073°58'1 2.7
2018-Aug-16 23:30N 40°44' W 073°58'1 2.7
2018-Aug-16 23:00N 40°43' W 073°58'1 2.2
2018-Aug-16 22:30N 40°42' W 073°60'1 1.6
2018-Aug-16 22:00N 40°42' W 074°00'1 2.7
2018-Aug-16 21:30N 40°41' W 074°01'1 1.5
2018-Aug-16 21:00N 40°40' W 074°02'1 2.2
2018-Aug-16 20:30N 40°39' W 074°03'0 0.2
2018-Aug-16 20:00N 40°39' W 074°03'1 2.1
2018-Aug-16 19:30N 40°39' W 074°04'4 7.1
2018-Aug-16 19:00N 40°39' W 074°09'10 2.0
2018-Aug-16 13:55N 40°31' W 074°17'0 0.0
2018-Aug-16 13:30N 40°31' W 074°17'0 0.0
2018-Aug-16 12:57N 40°31' W 074°17'0 0.0
2018-Aug-16 12:25N 40°31' W 074°17'0 0.0
2018-Aug-16 11:59N 40°31' W 074°17'0 0.0
2018-Aug-16 11:15N 40°31' W 074°17'0 0.0
2018-Aug-16 10:55N 40°31' W 074°17'0 0.0
2018-Aug-16 10:30N 40°31' W 074°17'0 0.0
2018-Aug-16 09:58N 40°31' W 074°17'0 0.0
2018-Aug-16 08:41N 40°31' W 074°17'0 0.0
2018-Aug-16 08:30N 40°31' W 074°17'6 0.4
2018-Aug-15 18:23N 40°35' W 074°12'4 6.7
2018-Aug-15 17:51N 40°39' W 074°11'3 8.4
2018-Aug-15 17:30N 40°39' W 074°07'4 7.8
2018-Aug-15 17:00N 40°41' W 074°02'4 8.9
2018-Aug-15 16:30N 40°45' W 074°01'8 0.2
2018-Aug-14 05:57N 40°52' W 073°56'4 9.0
2018-Aug-14 05:30N 40°49' W 073°58'5 9.8
2018-Aug-14 05:00N 40°44' W 074°01'5 9.3
2018-Aug-14 04:30N 40°40' W 074°03'4 8.8
2018-Aug-14 04:00N 40°38' W 074°09'5 0.2
2018-Aug-13 00:17N 40°34' W 074°13'3 8.0
2018-Aug-12 23:58N 40°37' W 074°12'3 7.7
2018-Aug-12 23:30N 40°39' W 074°09'3 6.4
2018-Aug-12 23:00N 40°42' W 074°07'0 0.0
2018-Aug-12 22:30N 40°42' W 074°07'0 0.0
2018-Aug-12 21:59N 40°42' W 074°07'0 0.0
2018-Aug-12 21:31N 40°42' W 074°07'0 0.0
2018-Aug-12 21:00N 40°42' W 074°07'0 0.0
2018-Aug-12 20:30N 40°42' W 074°07'0 0.0
2018-Aug-12 20:00N 40°42' W 074°07'0 0.0
2018-Aug-12 19:30N 40°42' W 074°07'0 0.0
2018-Aug-12 19:00N 40°42' W 074°07'0 0.0
2018-Aug-12 18:30N 40°42' W 074°07'0 0.0
2018-Aug-12 18:00N 40°42' W 074°07'0 0.0
2018-Aug-12 17:30N 40°42' W 074°07'0 0.0
2018-Aug-12 17:00N 40°42' W 074°07'0 0.0
2018-Aug-12 16:30N 40°42' W 074°07'0 0.0
2018-Aug-12 16:00N 40°42' W 074°07'0 0.0
2018-Aug-12 15:30N 40°42' W 074°07'0 0.0
2018-Aug-12 15:00N 40°42' W 074°07'1 1.1
2018-Aug-12 14:30N 40°42' W 074°07'4 7.5
2018-Aug-12 14:00N 40°39' W 074°10'10 1.4
2018-Aug-12 06:58N 40°31' W 074°18'0 0.0
2018-Aug-12 06:23N 40°31' W 074°18'0 0.0
2018-Aug-12 04:58N 40°31' W 074°18'7 4.5
2018-Aug-12 03:31N 40°36' W 074°12'0 9.4
2018-Aug-12 03:30N 40°36' W 074°12'4 7.0
2018-Aug-12 02:59N 40°39' W 074°09'4 8.1
2018-Aug-12 02:30N 40°40' W 074°04'4 8.2
2018-Aug-12 02:00N 40°43' W 074°01'  
Track history (hours):
 
Tides and Currents Weather Stations Pressure Air Temp Water Temp Dewpoint Dewpoint Depression Visibility Wind Speed Wind Dir Waves Ship Positions

Discovery Coast

Owner: Dann Marine Towing, LC, Chesapeake City, MD. More information available from US FCC via Universal Licensing System.

Last reported at 2018-Aug-17 07:36 UTC. Time now 2018-Aug-17 11:40 UTC.
Position N 41°09' W 072°41'.

Length 31 m; draft 4.3 m.

Type: Tug. MMSI: 367515850.

Date/timePositionNaut miles runAvg speedWind from/ knotsBaromVisibWave heightAir tempDewpointWater temp
2018-Aug-17 07:36N 41°09' W 072°41'1 8.3
2018-Aug-17 07:30N 41°08' W 072°42'5 8.5
2018-Aug-17 06:55N 41°08' W 072°49'52 8.6
2018-Aug-17 00:50N 40°48' W 073°53'2 6.5
2018-Aug-17 00:27N 40°47' W 073°56'2 4.1
2018-Aug-17 00:00N 40°45' W 073°58'1 2.7
2018-Aug-16 23:30N 40°44' W 073°58'1 2.7
2018-Aug-16 23:00N 40°43' W 073°58'1 2.2
2018-Aug-16 22:30N 40°42' W 073°60'1 1.6
2018-Aug-16 22:00N 40°42' W 074°00'1 2.7
2018-Aug-16 21:30N 40°41' W 074°01'1 1.5
2018-Aug-16 21:00N 40°40' W 074°02'1 2.2
2018-Aug-16 20:30N 40°39' W 074°03'0 0.2
2018-Aug-16 20:00N 40°39' W 074°03'1 2.1
2018-Aug-16 19:30N 40°39' W 074°04'4 7.1
2018-Aug-16 19:00N 40°39' W 074°09'10 2.0
2018-Aug-16 13:55N 40°31' W 074°17'0 0.0
2018-Aug-16 13:30N 40°31' W 074°17'0 0.0
2018-Aug-16 12:57N 40°31' W 074°17'0 0.0
2018-Aug-16 12:25N 40°31' W 074°17'0 0.0
2018-Aug-16 11:59N 40°31' W 074°17'0 0.0
2018-Aug-16 11:15N 40°31' W 074°17'0 0.0
2018-Aug-16 10:55N 40°31' W 074°17'0 0.0
2018-Aug-16 10:30N 40°31' W 074°17'0 0.0
2018-Aug-16 09:58N 40°31' W 074°17'0 0.0
2018-Aug-16 08:41N 40°31' W 074°17'0 0.0
2018-Aug-16 08:30N 40°31' W 074°17'6 0.4
2018-Aug-15 18:23N 40°35' W 074°12'4 6.7
2018-Aug-15 17:51N 40°39' W 074°11'3 8.4
2018-Aug-15 17:30N 40°39' W 074°07'4 7.8
2018-Aug-15 17:00N 40°41' W 074°02'4 8.9
2018-Aug-15 16:30N 40°45' W 074°01'8 0.2
2018-Aug-14 05:57N 40°52' W 073°56'4 9.0
2018-Aug-14 05:30N 40°49' W 073°58'5 9.8
2018-Aug-14 05:00N 40°44' W 074°01'5 9.3
2018-Aug-14 04:30N 40°40' W 074°03'4 8.8
2018-Aug-14 04:00N 40°38' W 074°09'5 0.2
2018-Aug-13 00:17N 40°34' W 074°13'3 8.0
2018-Aug-12 23:58N 40°37' W 074°12'3 7.7
2018-Aug-12 23:30N 40°39' W 074°09'3 6.4
2018-Aug-12 23:00N 40°42' W 074°07'0 0.0
2018-Aug-12 22:30N 40°42' W 074°07'0 0.0
2018-Aug-12 21:59N 40°42' W 074°07'0 0.0
2018-Aug-12 21:31N 40°42' W 074°07'0 0.0
2018-Aug-12 21:00N 40°42' W 074°07'0 0.0
2018-Aug-12 20:30N 40°42' W 074°07'0 0.0
2018-Aug-12 20:00N 40°42' W 074°07'0 0.0
2018-Aug-12 19:30N 40°42' W 074°07'0 0.0
2018-Aug-12 19:00N 40°42' W 074°07'0 0.0
2018-Aug-12 18:30N 40°42' W 074°07'0 0.0
2018-Aug-12 18:00N 40°42' W 074°07'0 0.0
2018-Aug-12 17:30N 40°42' W 074°07'0 0.0
2018-Aug-12 17:00N 40°42' W 074°07'0 0.0
2018-Aug-12 16:30N 40°42' W 074°07'0 0.0
2018-Aug-12 16:00N 40°42' W 074°07'0 0.0
2018-Aug-12 15:30N 40°42' W 074°07'0 0.0
2018-Aug-12 15:00N 40°42' W 074°07'1 1.1
2018-Aug-12 14:30N 40°42' W 074°07'4 7.5
2018-Aug-12 14:00N 40°39' W 074°10'10 1.4
2018-Aug-12 06:58N 40°31' W 074°18'0 0.0
2018-Aug-12 06:23N 40°31' W 074°18'0 0.0
2018-Aug-12 04:58N 40°31' W 074°18'7 4.5
2018-Aug-12 03:31N 40°36' W 074°12'0 9.4
2018-Aug-12 03:30N 40°36' W 074°12'4 7.0
2018-Aug-12 02:59N 40°39' W 074°09'4 8.1
2018-Aug-12 02:30N 40°40' W 074°04'4 8.2
2018-Aug-12 02:00N 40°43' W 074°01'  

Dump ship's entire track history